createdAt,value
2022-08-14T00:01:55.888Z,99852.66
2022-08-14T00:06:59.258Z,99838.28
2022-08-14T00:12:00.938Z,99822.91
2022-08-14T00:17:02.807Z,99808.59
2022-08-14T00:22:04.487Z,99790.69
2022-08-14T00:27:07.010Z,99789.59
2022-08-14T00:32:52.811Z,99783.25
2022-08-14T00:37:31.976Z,99796.53
2022-08-14T00:42:55.393Z,99790.50
2022-08-14T00:47:55.698Z,99791.88
2022-08-14T00:53:00.189Z,99773.69
2022-08-14T00:58:32.678Z,99740.31
2022-08-14T01:03:39.627Z,99713.25
2022-08-14T01:08:51.650Z,99702.97
2022-08-14T01:14:01.545Z,99697.97
2022-08-14T01:19:25.226Z,99707.03
2022-08-14T01:24:30.942Z,99707.56
2022-08-14T01:29:58.595Z,99714.41
2022-08-14T01:35:17.494Z,99708.56
2022-08-14T01:40:25.425Z,99698.63
2022-08-14T01:45:28.715Z,99701.03
2022-08-14T01:50:33.818Z,99688.09
2022-08-14T01:55:40.263Z,99678.22
2022-08-14T02:00:42.131Z,99692.31
2022-08-14T02:05:43.719Z,99697.06
2022-08-14T02:10:46.739Z,99701.25
2022-08-14T02:15:50.293Z,99712.53
2022-08-14T02:20:51.927Z,99697.09
2022-08-14T02:26:24.330Z,99689.13
2022-08-14T02:31:42.118Z,99680.38
2022-08-14T02:37:03.638Z,99677.94
2022-08-14T02:42:12.999Z,99699.19
2022-08-14T02:47:19.076Z,99702.22
2022-08-14T02:52:55.877Z,99703.31
2022-08-14T02:57:43.230Z,99690.91
2022-08-14T03:02:56.085Z,99695.00
2022-08-14T03:08:15.161Z,99686.44
2022-08-14T03:13:21.682Z,99695.00
2022-08-14T03:18:31.597Z,99688.34
2022-08-14T03:23:37.742Z,99667.38
2022-08-14T03:28:43.594Z,99634.81
2022-08-14T03:33:45.289Z,99628.09
2022-08-14T03:39:15.244Z,99625.50
2022-08-14T03:45:26.345Z,99627.63
2022-08-14T03:49:42.570Z,99629.47
2022-08-14T03:54:46.618Z,99628.28
2022-08-14T03:59:54.290Z,99613.59
2022-08-14T04:04:55.879Z,99600.56
2022-08-14T04:10:10.065Z,99597.47
2022-08-14T04:15:11.698Z,99593.28
2022-08-14T04:20:13.358Z,99598.22
2022-08-14T04:25:27.840Z,99603.19
2022-08-14T04:30:32.732Z,99604.59
2022-08-14T04:35:55.493Z,99613.97
2022-08-14T04:41:15.930Z,99625.63
2022-08-14T04:46:55.772Z,99629.66
2022-08-14T04:51:46.920Z,99639.88
2022-08-14T04:56:57.874Z,99655.75
2022-08-14T05:02:01.564Z,99661.38
2022-08-14T05:07:04.152Z,99649.19
2022-08-14T05:13:11.017Z,99662.03
2022-08-14T05:17:43.961Z,99678.81
2022-08-14T05:22:56.033Z,99682.59
2022-08-14T05:28:00.163Z,99678.78
2022-08-14T05:33:07.534Z,99668.88
2022-08-14T05:38:22.455Z,99676.47
2022-08-14T05:43:41.270Z,99701.69
2022-08-14T05:48:47.762Z,99712.75
2022-08-14T05:54:00.230Z,99733.16
2022-08-14T05:59:12.286Z,99748.47
2022-08-14T06:04:13.854Z,99762.88
2022-08-14T06:09:17.380Z,99764.59
2022-08-14T06:14:21.502Z,99771.28
2022-08-14T06:19:25.449Z,99768.06
2022-08-14T06:24:30.230Z,99774.47
2022-08-14T06:29:37.574Z,99766.63
2022-08-14T06:35:04.069Z,99771.78
2022-08-14T06:40:01.482Z,99780.66
2022-08-14T06:45:08.016Z,99771.97
2022-08-14T06:50:12.689Z,99770.75
2022-08-14T06:55:19.301Z,99762.19
2022-08-14T07:00:31.157Z,99760.19
2022-08-14T07:05:55.664Z,99755.66
2022-08-14T07:11:01.542Z,99744.63
2022-08-14T07:16:05.471Z,99787.13
2022-08-14T07:21:09.380Z,99762.69
2022-08-14T07:26:13.153Z,99787.19
2022-08-14T07:31:16.306Z,99808.06
2022-08-14T07:36:26.984Z,99791.50
2022-08-14T07:41:35.630Z,99806.44
2022-08-14T07:46:38.009Z,99819.28
2022-08-14T07:51:42.030Z,99817.63
2022-08-14T07:56:48.809Z,99818.53
2022-08-14T08:01:53.275Z,99825.63
2022-08-14T08:07:00.736Z,99832.56
2022-08-14T08:12:05.092Z,99857.16
2022-08-14T08:17:11.413Z,99816.06
2022-08-14T08:22:13.089Z,99825.25
2022-08-14T08:27:17.228Z,99820.03
2022-08-14T08:32:19.098Z,99814.28
2022-08-14T08:37:21.015Z,99848.25
2022-08-14T08:42:31.682Z,99838.94
2022-08-14T08:47:40.947Z,99813.50
2022-08-14T08:52:53.700Z,99887.78
2022-08-14T08:58:00.800Z,99964.78
2022-08-14T09:03:11.065Z,99969.47
2022-08-14T09:08:30.560Z,100202.63
2022-08-14T09:13:33.567Z,100264.28
2022-08-14T09:18:35.976Z,100294.47
2022-08-14T09:24:26.730Z,100362.13
2022-08-14T09:28:59.779Z,100357.44
2022-08-14T09:34:27.215Z,100246.63
2022-08-14T09:39:48.983Z,100282.38
2022-08-14T09:45:07.862Z,100315.09
2022-08-14T09:50:16.185Z,100354.44
2022-08-14T09:55:23.814Z,100342.00
2022-08-14T10:00:42.354Z,100311.28
2022-08-14T10:05:44.182Z,100307.44
2022-08-14T10:10:45.879Z,100335.03
2022-08-14T10:16:00.191Z,100340.09
2022-08-14T10:21:02.780Z,100292.94
2022-08-14T10:26:22.782Z,100322.94
2022-08-14T10:31:44.476Z,100280.88
2022-08-14T10:37:02.256Z,100365.06
2022-08-14T10:42:18.075Z,100328.69
2022-08-14T10:47:41.209Z,100324.28
2022-08-14T10:52:43.289Z,100344.38
2022-08-14T10:57:50.036Z,100335.59
2022-08-14T11:03:02.087Z,100325.22
2022-08-14T11:08:12.810Z,100436.88
2022-08-14T11:31:24.124Z,100464.09
2022-08-14T11:42:56.141Z,100500.50
2022-08-14T11:48:12.780Z,100499.94
2022-08-14T11:53:31.412Z,100475.41
2022-08-14T11:58:35.766Z,100456.97
2022-08-14T12:03:52.218Z,100452.88
2022-08-14T12:09:00.061Z,100387.47
2022-08-14T12:14:13.305Z,100318.28
2022-08-14T12:19:33.511Z,100352.88
2022-08-14T12:24:40.184Z,100347.66
2022-08-14T12:29:53.511Z,100339.75
2022-08-14T12:34:55.353Z,100311.81
2022-08-14T12:40:20.662Z,100394.66
2022-08-14T12:45:31.935Z,100386.56
2022-08-14T12:50:42.007Z,100323.78
2022-08-14T12:56:22.545Z,100332.03
2022-08-14T13:01:16.948Z,100346.84
2022-08-14T13:06:24.539Z,100304.59
2022-08-14T13:11:31.208Z,100324.50
2022-08-14T13:16:38.831Z,100372.72
2022-08-14T13:22:05.427Z,100376.66
2022-08-14T13:27:06.266Z,100330.91
2022-08-14T13:32:12.915Z,100314.91
2022-08-14T13:37:17.287Z,100328.56
2022-08-14T13:42:23.105Z,100341.22
2022-08-14T13:47:30.333Z,100398.44
2022-08-14T13:52:59.569Z,100330.66
2022-08-14T13:58:05.048Z,100272.06
2022-08-14T14:03:08.736Z,100238.75
2022-08-14T14:08:18.457Z,100220.56
2022-08-14T14:13:22.135Z,100230.94
2022-08-14T14:18:34.496Z,100254.78
2022-08-14T14:23:37.961Z,100250.09
2022-08-14T14:28:41.693Z,100218.59
2022-08-14T14:33:48.657Z,100168.66
2022-08-14T14:38:54.254Z,100163.34
2022-08-14T14:43:58.858Z,100132.88
2022-08-14T14:49:01.614Z,100109.31
2022-08-14T14:54:06.815Z,100115.81
2022-08-14T14:59:11.461Z,100122.38
2022-08-14T15:10:28.299Z,100154.13
2022-08-14T15:15:37.344Z,100130.31
2022-08-14T15:20:39.576Z,100136.50
2022-08-14T15:25:53.175Z,100199.03
2022-08-14T15:30:59.201Z,100210.03
2022-08-14T15:36:01.639Z,100208.31
2022-08-14T15:41:08.542Z,100213.50
2022-08-14T15:46:10.411Z,100222.28
2022-08-14T15:51:32.083Z,100219.59
2022-08-14T15:56:43.281Z,100213.03
2022-08-14T16:01:54.119Z,100189.66
2022-08-14T16:06:56.397Z,100162.25
2022-08-14T16:11:58.168Z,100125.16
2022-08-14T16:17:03.177Z,100066.38
2022-08-14T16:22:58.294Z,99987.28
2022-08-14T16:27:37.167Z,99921.09
2022-08-14T16:32:54.809Z,99895.03
2022-08-14T16:37:59.040Z,99879.41
2022-08-14T16:43:25.901Z,99847.16
2022-08-14T16:48:57.287Z,99831.03
2022-08-14T16:53:52.111Z,99806.78
2022-08-14T16:59:15.128Z,99812.91
2022-08-14T17:04:25.314Z,99793.22
2022-08-14T17:09:33.688Z,99774.75
2022-08-14T17:14:50.744Z,99747.00
2022-08-14T17:20:08.866Z,99701.00
2022-08-14T17:25:31.334Z,99582.13
2022-08-14T17:30:53.711Z,99401.72
2022-08-14T17:36:21.153Z,99272.97
2022-08-14T17:41:32.969Z,99211.31
2022-08-14T17:46:43.330Z,99163.94
2022-08-14T17:52:16.656Z,99135.75
2022-08-14T17:57:23.157Z,99134.25
2022-08-14T18:02:31.106Z,99112.56
2022-08-14T18:07:50.563Z,99106.06
2022-08-14T18:12:57.006Z,99117.75
2022-08-14T18:18:00.432Z,99121.25
2022-08-14T18:23:04.647Z,99110.66
2022-08-14T18:28:15.980Z,99107.25
2022-08-14T18:33:22.580Z,99112.31
2022-08-14T18:38:55.402Z,99111.47
2022-08-14T18:43:59.054Z,99112.59
2022-08-14T18:49:15.210Z,99118.56
2022-08-14T18:54:37.460Z,99130.06
2022-08-14T18:59:42.343Z,99137.22
2022-08-14T19:04:44.858Z,99147.13
2022-08-14T19:09:53.790Z,99155.03
2022-08-14T19:15:08.133Z,99160.94
2022-08-14T19:20:11.405Z,99164.59
2022-08-14T19:25:48.068Z,99169.19
2022-08-14T19:31:55.340Z,99172.34
2022-08-14T19:37:05.765Z,99205.84
2022-08-14T19:42:08.654Z,99210.53
2022-08-14T19:47:13.081Z,99223.38
2022-08-14T19:52:39.515Z,99236.47
2022-08-14T19:57:41.976Z,99231.50
2022-08-14T20:03:10.926Z,99240.63
2022-08-14T20:11:01.258Z,99256.47
2022-08-14T20:13:38.706Z,99245.53
2022-08-14T20:18:51.646Z,99258.59
2022-08-14T20:24:30.729Z,99244.38
2022-08-14T20:29:38.099Z,99245.88
2022-08-14T20:34:51.331Z,99254.16
2022-08-14T20:39:54.696Z,99254.16
2022-08-14T20:45:17.962Z,99270.72
2022-08-14T20:50:28.650Z,99268.03
2022-08-14T20:55:37.177Z,99266.25
2022-08-14T21:00:52.488Z,99272.09
2022-08-14T21:06:01.570Z,99266.69
2022-08-14T21:11:23.036Z,99280.91
2022-08-14T21:22:26.898Z,99285.31
2022-08-14T21:27:28.506Z,99286.03
2022-08-14T21:32:50.680Z,99277.84
2022-08-14T21:37:59.685Z,99284.09
2022-08-14T21:43:04.924Z,99288.09
2022-08-14T21:48:09.160Z,99299.94
2022-08-14T21:53:14.423Z,99297.25
2022-08-14T21:58:54.417Z,99297.34
2022-08-14T22:03:44.842Z,99303.00
2022-08-14T22:08:52.772Z,99304.69
2022-08-14T22:13:56.265Z,99309.06
2022-08-14T22:19:06.009Z,99307.63
2022-08-14T22:24:25.949Z,99313.06
2022-08-14T22:29:36.287Z,99310.81
2022-08-14T22:34:40.955Z,99313.47
2022-08-14T22:40:51.213Z,99314.81
2022-08-14T22:45:07.357Z,99317.81
2022-08-14T22:50:31.885Z,99315.53
2022-08-14T22:55:31.372Z,99322.31
2022-08-14T23:00:38.343Z,99322.97
2022-08-14T23:05:52.988Z,99331.56
2022-08-14T23:10:56.223Z,99341.25
2022-08-14T23:15:58.539Z,99333.91
2022-08-14T23:21:01.127Z,99332.59
2022-08-14T23:26:47.903Z,99343.28
2022-08-14T23:31:35.679Z,99340.84
2022-08-14T23:36:54.058Z,99339.88
2022-08-14T23:42:02.285Z,99340.53
2022-08-14T23:47:10.785Z,99344.00
2022-08-14T23:52:51.309Z,99345.84
2022-08-14T23:57:34.986Z,99335.66
